Time;durP1;ratioP1;P1;durP2;ratioP2;P2;SDS_P1;SDS_P2;PMS_P1;PMS_P2;Temp;Humidity;BMP_temperature;BMP_pressure;BME280_temperature;BME280_humidity;BME280_pressure;Samples;Min_cycle;Max_cycle;Signal;HPM_P1;HPM_P2
2022/04/14 00:01:00;;;;;;;;;;;9.50;77.30;;;;;;5052673;28;19909;-90
2022/04/14 00:03:26;;;;;;;;;;;9.50;77.30;;;;;;5052652;28;20365;-90
2022/04/14 00:05:51;;;;;;;;;;;9.50;77.30;;;;;;5054646;28;20356;-89
2022/04/14 00:08:17;;;;;;;;;;;9.40;76.80;;;;;;5072619;28;19958;-89
2022/04/14 00:10:42;;;;;;;;;;;9.00;77.20;;;;;;5072518;28;19938;-90
2022/04/14 00:13:08;;;;;;;;;;;8.80;78.30;;;;;;5076348;28;19909;-89
2022/04/14 00:15:33;;;;;;;;;;;8.70;78.70;;;;;;5058368;28;19909;-88
2022/04/14 00:17:59;;;;;;;;;;;8.80;78.60;;;;;;5056790;28;19935;-90
2022/04/14 00:20:25;;;;;;;;;;;8.80;78.60;;;;;;5056196;28;19909;-89
2022/04/14 00:22:50;;;;;;;;;;;8.90;78.60;;;;;;5056424;28;19916;-89
2022/04/14 00:25:16;;;;;;;;;;;9.00;78.80;;;;;;5055811;28;20394;-89
2022/04/14 00:27:41;;;;;;;;;;;9.10;78.60;;;;;;5072915;28;19920;-89
2022/04/14 00:30:07;;;;;;;;;;;9.10;78.20;;;;;;5076035;28;19913;-89
2022/04/14 00:32:33;;;;;;;;;;;9.10;78.00;;;;;;5076170;28;20003;-89
2022/04/14 00:34:58;;;;;;;;;;;8.90;78.20;;;;;;5076239;28;19916;-89
2022/04/14 00:37:24;;;;;;;;;;;8.90;79.60;;;;;;5061239;28;19919;-89
2022/04/14 00:39:51;;;;;;;;;;;9.00;79.30;;;;;;5056151;28;19936;-90
2022/04/14 00:42:16;;;;;;;;;;;9.00;79.20;;;;;;5056101;28;19913;-89
2022/04/14 00:44:42;;;;;;;;;;;9.00;78.70;;;;;;5055933;28;19912;-89
2022/04/14 00:47:08;;;;;;;;;;;8.90;78.90;;;;;;5067496;28;19913;-89
2022/04/14 00:49:34;;;;;;;;;;;8.90;79.20;;;;;;5075722;28;19909;-90
2022/04/14 00:52:00;;;;;;;;;;;8.90;79.30;;;;;;5075702;28;20358;-89
2022/04/14 00:54:25;;;;;;;;;;;8.90;79.40;;;;;;5075627;28;19909;-89
2022/04/14 00:56:51;;;;;;;;;;;8.90;79.60;;;;;;5065863;28;19913;-89
2022/04/14 00:59:16;;;;;;;;;;;9.00;79.60;;;;;;5037921;28;19912;-89
2022/04/14 01:01:42;;;;;;;;;;;9.00;79.60;;;;;;5055487;28;19909;-89
2022/04/14 01:04:09;;;;;;;;;;;9.00;80.00;;;;;;5055379;28;19994;-89
2022/04/14 01:06:38;;;;;;;;;;;9.00;79.80;;;;;;5062068;28;19912;-89
2022/04/14 01:09:16;;;;;;;;;;;8.90;79.70;;;;;;5075320;28;19913;-89
2022/04/14 01:11:47;;;;;;;;;;;8.90;80.10;;;;;;5057339;28;19916;-89
2022/04/14 01:14:25;;;;;;;;;;;8.90;80.80;;;;;;5075237;28;19912;-89
2022/04/14 01:16:50;;;;;;;;;;;8.90;80.70;;;;;;5065865;28;20366;-89
2022/04/14 01:19:16;;;;;;;;;;;8.90;80.90;;;;;;5055158;28;19959;-89
2022/04/14 01:21:44;;;;;;;;;;;8.90;80.40;;;;;;5054958;28;19909;-89
2022/04/14 01:24:10;;;;;;;;;;;8.90;80.00;;;;;;5054909;28;19912;-89
2022/04/14 01:26:37;;;;;;;;;;;8.90;79.50;;;;;;5061427;28;19921;-89
2022/04/14 01:29:03;;;;;;;;;;;9.00;79.80;;;;;;5074983;28;19999;-89
2022/04/14 01:31:29;;;;;;;;;;;8.80;79.40;;;;;;5074855;28;19909;-89
2022/04/14 01:33:54;;;;;;;;;;;8.70;79.40;;;;;;5074863;28;20007;-89
2022/04/14 01:36:20;;;;;;;;;;;8.60;79.70;;;;;;5070119;28;20000;-89
2022/04/14 01:38:45;;;;;;;;;;;8.60;79.50;;;;;;5054736;28;19909;-88
2022/04/14 01:41:11;;;;;;;;;;;8.70;79.40;;;;;;5055782;28;19912;-89
2022/04/14 01:43:36;;;;;;;;;;;8.80;79.80;;;;;;5054675;28;20264;-89
2022/04/14 01:46:05;;;;;;;;;;;8.80;79.50;;;;;;5056045;28;20415;-89
2022/04/14 01:48:30;;;;;;;;;;;8.80;79.30;;;;;;5074559;28;19969;-89
2022/04/14 01:50:56;;;;;;;;;;;8.60;78.90;;;;;;5074761;28;20348;-90
2022/04/14 01:53:21;;;;;;;;;;;8.40;81.00;;;;;;5074731;28;20381;-89
2022/04/14 01:55:47;;;;;;;;;;;8.40;81.30;;;;;;5074284;28;20293;-89
2022/04/14 01:58:12;;;;;;;;;;;8.50;81.40;;;;;;5054627;28;20282;-89
2022/04/14 02:00:38;;;;;;;;;;;8.40;81.20;;;;;;5054291;28;20409;-89
2022/04/14 02:03:03;;;;;;;;;;;8.30;81.40;;;;;;5054316;28;19909;-89
2022/04/14 02:05:29;;;;;;;;;;;8.10;82.60;;;;;;5054082;28;19912;-89
2022/04/14 02:07:55;;;;;;;;;;;7.90;83.70;;;;;;5070879;28;19917;-89
2022/04/14 02:10:20;;;;;;;;;;;7.70;84.40;;;;;;5073984;28;19909;-89
2022/04/14 02:12:46;;;;;;;;;;;7.70;85.70;;;;;;5074085;28;19912;-89
2022/04/14 02:15:12;;;;;;;;;;;7.80;88.60;;;;;;5056065;28;19974;-89
2022/04/14 02:17:38;;;;;;;;;;;7.70;89.10;;;;;;5059228;28;20333;-89
2022/04/14 02:20:05;;;;;;;;;;;7.70;89.50;;;;;;5054231;28;19909;-89
2022/04/14 02:22:37;;;;;;;;;;;7.70;89.60;;;;;;5053814;28;19955;-89
2022/04/14 02:25:02;;;;;;;;;;;7.60;88.60;;;;;;5053651;28;20437;-89
2022/04/14 02:27:28;;;;;;;;;;;7.70;88.00;;;;;;5066441;28;19913;-89
2022/04/14 02:29:53;;;;;;;;;;;7.70;87.80;;;;;;5073775;28;19909;-89
2022/04/14 02:32:19;;;;;;;;;;;7.90;87.20;;;;;;5073603;28;19915;-89
2022/04/14 02:34:44;;;;;;;;;;;7.90;85.70;;;;;;5073180;28;19913;-89
2022/04/14 02:37:10;;;;;;;;;;;7.90;85.90;;;;;;5045269;28;19912;-90
2022/04/14 02:39:35;;;;;;;;;;;8.00;86.20;;;;;;5035763;28;19933;-89
2022/04/14 02:42:01;;;;;;;;;;;8.10;86.00;;;;;;5053567;28;20337;-89
2022/04/14 02:44:26;;;;;;;;;;;8.20;85.80;;;;;;5053432;28;20462;-89
2022/04/14 02:46:52;;;;;;;;;;;8.30;86.00;;;;;;5060336;28;20278;-89
2022/04/14 02:49:18;;;;;;;;;;;8.30;86.20;;;;;;5071051;28;19954;-90
2022/04/14 02:51:43;;;;;;;;;;;8.30;86.60;;;;;;5053361;28;19909;-89
2022/04/14 02:54:09;;;;;;;;;;;8.40;86.10;;;;;;5053180;28;19916;-89
2022/04/14 02:56:34;;;;;;;;;;;8.30;85.40;;;;;;5053465;28;19920;-89
2022/04/14 02:59:00;;;;;;;;;;;8.20;85.10;;;;;;5053571;28;20363;-89
2022/04/14 03:01:25;;;;;;;;;;;8.20;85.50;;;;;;5052979;28;19909;-89
2022/04/14 03:03:51;;;;;;;;;;;8.20;85.60;;;;;;5052631;28;20428;-89
2022/04/14 03:06:16;;;;;;;;;;;8.30;85.00;;;;;;5054224;28;20046;-89
2022/04/14 03:08:42;;;;;;;;;;;8.30;84.60;;;;;;5073081;28;20393;-89
2022/04/14 03:11:07;;;;;;;;;;;8.30;84.90;;;;;;5073477;28;20289;-89
2022/04/14 03:13:33;;;;;;;;;;;8.40;84.20;;;;;;5055040;28;20317;-89
2022/04/14 03:15:58;;;;;;;;;;;8.40;84.00;;;;;;5073088;28;19966;-89
2022/04/14 03:18:24;;;;;;;;;;;8.40;84.60;;;;;;5053577;28;20001;-88
2022/04/14 03:20:50;;;;;;;;;;;8.40;85.20;;;;;;5053334;28;20051;-89
2022/04/14 03:23:15;;;;;;;;;;;8.40;85.40;;;;;;5053047;28;19916;-89
2022/04/14 03:25:41;;;;;;;;;;;8.40;85.00;;;;;;5058535;23;19972;-89
2022/04/14 03:28:07;;;;;;;;;;;8.20;84.30;;;;;;5052722;28;19917;-89
2022/04/14 03:30:32;;;;;;;;;;;7.80;84.30;;;;;;5052943;28;19908;-89
2022/04/14 03:32:58;;;;;;;;;;;7.60;85.80;;;;;;5052898;28;19916;-89
2022/04/14 03:35:23;;;;;;;;;;;7.50;87.30;;;;;;5052888;28;20355;-88
2022/04/14 03:37:49;;;;;;;;;;;7.50;88.20;;;;;;5052878;28;19958;-89
2022/04/14 03:40:14;;;;;;;;;;;7.70;88.40;;;;;;5052859;28;20282;-89
2022/04/14 03:42:40;;;;;;;;;;;7.80;88.40;;;;;;5052841;28;20363;-89
2022/04/14 03:45:06;;;;;;;;;;;7.90;88.20;;;;;;5052747;28;19917;-89
2022/04/14 03:47:31;;;;;;;;;;;8.00;87.70;;;;;;5055504;28;20283;-89
2022/04/14 03:49:57;;;;;;;;;;;7.90;87.20;;;;;;5056813;28;20355;-89
2022/04/14 03:52:23;;;;;;;;;;;7.80;86.00;;;;;;5056748;28;19915;-89
2022/04/14 03:54:48;;;;;;;;;;;7.60;86.30;;;;;;5056713;28;20256;-89
2022/04/14 03:57:14;;;;;;;;;;;7.60;87.10;;;;;;5056506;28;20333;-89
2022/04/14 03:59:39;;;;;;;;;;;7.60;87.50;;;;;;5056676;28;19915;-89
2022/04/14 04:02:05;;;;;;;;;;;7.70;87.50;;;;;;5056611;28;19909;-89
2022/04/14 04:04:31;;;;;;;;;;;7.70;87.70;;;;;;5056473;28;19917;-89
2022/04/14 04:06:58;;;;;;;;;;;7.80;87.60;;;;;;5056787;28;19970;-89
2022/04/14 04:09:23;;;;;;;;;;;7.80;87.40;;;;;;5065122;28;20362;-89
2022/04/14 04:11:50;;;;;;;;;;;7.80;87.40;;;;;;5075219;28;19915;-90
2022/04/14 04:14:15;;;;;;;;;;;7.80;87.20;;;;;;5069489;28;19913;-88
2022/04/14 04:16:41;;;;;;;;;;;7.80;86.90;;;;;;5056365;28;19909;-89
2022/04/14 04:19:07;;;;;;;;;;;7.80;86.80;;;;;;5056247;28;20374;-88
2022/04/14 04:21:33;;;;;;;;;;;7.70;86.20;;;;;;5056258;28;19916;-89
2022/04/14 04:23:58;;;;;;;;;;;7.70;86.80;;;;;;5059977;28;19927;-89
2022/04/14 04:26:24;;;;;;;;;;;7.60;86.30;;;;;;5076109;28;19916;-89
2022/04/14 04:28:49;;;;;;;;;;;7.60;86.70;;;;;;5076362;28;20274;-88
2022/04/14 04:31:15;;;;;;;;;;;7.60;86.90;;;;;;5074611;28;19909;-89
2022/04/14 04:33:40;;;;;;;;;;;7.60;86.90;;;;;;5074074;28;19920;-88
2022/04/14 04:36:07;;;;;;;;;;;7.60;87.00;;;;;;5056553;28;20325;-88
2022/04/14 04:38:32;;;;;;;;;;;7.60;86.60;;;;;;5055975;28;20314;-88
2022/04/14 04:40:58;;;;;;;;;;;7.40;86.30;;;;;;5055889;28;19951;-89
2022/04/14 04:43:27;;;;;;;;;;;7.40;88.00;;;;;;5055863;28;19974;-89
2022/04/14 04:45:52;;;;;;;;;;;7.40;87.20;;;;;;5055927;28;19917;-88
2022/04/14 04:48:18;;;;;;;;;;;7.30;86.40;;;;;;5055734;28;20009;-89
2022/04/14 04:50:44;;;;;;;;;;;7.20;86.90;;;;;;5055638;28;19909;-89
2022/04/14 04:53:09;;;;;;;;;;;7.30;87.00;;;;;;5054593;28;19909;-89
2022/04/14 04:55:35;;;;;;;;;;;7.30;87.40;;;;;;5044306;28;19913;-89
2022/04/14 04:58:00;;;;;;;;;;;7.30;88.00;;;;;;5044883;28;19920;-88
2022/04/14 05:00:26;;;;;;;;;;;7.10;87.60;;;;;;5055470;28;20007;-88
2022/04/14 05:02:51;;;;;;;;;;;7.20;89.20;;;;;;5055432;28;19915;-88
2022/04/14 05:05:18;;;;;;;;;;;7.20;88.90;;;;;;5067619;28;20011;-88
2022/04/14 05:07:43;;;;;;;;;;;7.20;88.80;;;;;;5075431;28;19959;-88
2022/04/14 05:10:09;;;;;;;;;;;7.20;89.00;;;;;;5075243;28;19908;-88
2022/04/14 05:12:35;;;;;;;;;;;7.30;89.20;;;;;;5075323;28;19912;-88
2022/04/14 05:15:00;;;;;;;;;;;7.40;89.10;;;;;;5057084;28;19947;-88
2022/04/14 05:17:26;;;;;;;;;;;7.40;89.10;;;;;;5035220;28;19909;-88
2022/04/14 05:19:51;;;;;;;;;;;7.50;88.80;;;;;;5035194;28;19909;-88
2022/04/14 05:22:17;;;;;;;;;;;7.60;88.70;;;;;;5050308;28;19917;-88
2022/04/14 05:24:42;;;;;;;;;;;7.60;88.50;;;;;;5042188;28;19921;-88
2022/04/14 05:27:08;;;;;;;;;;;7.80;88.40;;;;;;5072510;28;20270;-87
2022/04/14 05:29:35;;;;;;;;;;;7.90;87.80;;;;;;5045522;28;19913;-88
2022/04/14 05:32:00;;;;;;;;;;;8.10;87.40;;;;;;5052821;28;19919;-88
2022/04/14 05:34:26;;;;;;;;;;;8.40;86.80;;;;;;5044877;28;19913;-87
2022/04/14 05:36:52;;;;;;;;;;;8.60;86.00;;;;;;5065318;28;19908;-87
2022/04/14 05:39:18;;;;;;;;;;;8.80;85.20;;;;;;5060257;28;20267;-88
2022/04/14 05:41:44;;;;;;;;;;;8.70;85.00;;;;;;5055922;28;20015;-87
2022/04/14 05:44:09;;;;;;;;;;;8.70;85.50;;;;;;5046318;28;19913;-87
2022/04/14 05:46:35;;;;;;;;;;;8.70;86.20;;;;;;5040109;28;20409;-87
2022/04/14 05:49:01;;;;;;;;;;;8.70;86.00;;;;;;5061913;28;20283;-88
2022/04/14 05:51:26;;;;;;;;;;;8.70;86.40;;;;;;5065360;28;19959;-88
2022/04/14 05:53:53;;;;;;;;;;;8.70;86.50;;;;;;5049019;28;19928;-87
2022/04/14 05:56:19;;;;;;;;;;;8.80;86.90;;;;;;5040086;28;20019;-88
2022/04/14 05:58:44;;;;;;;;;;;8.90;87.10;;;;;;5040016;28;19956;-87
2022/04/14 06:01:10;;;;;;;;;;;9.00;85.70;;;;;;5047716;28;20067;-88
2022/04/14 06:03:35;;;;;;;;;;;9.10;86.00;;;;;;5047365;28;19920;-88
2022/04/14 06:06:01;;;;;;;;;;;9.20;85.70;;;;;;5049230;28;19917;-87
2022/04/14 06:08:27;;;;;;;;;;;9.30;85.50;;;;;;5050912;28;19917;-88
2022/04/14 06:10:53;;;;;;;;;;;9.40;86.00;;;;;;5049561;28;19921;-88
2022/04/14 06:13:18;;;;;;;;;;;9.50;85.20;;;;;;5045611;28;20334;-88
2022/04/14 06:15:44;;;;;;;;;;;9.70;85.40;;;;;;5049149;28;20000;-87
2022/04/14 06:18:09;;;;;;;;;;;9.90;85.20;;;;;;5047637;28;19920;-87
2022/04/14 06:20:35;;;;;;;;;;;10.10;82.40;;;;;;5047711;28;19913;-88
2022/04/14 06:23:00;;;;;;;;;;;10.30;82.60;;;;;;5047740;28;19917;-88
2022/04/14 06:25:26;;;;;;;;;;;10.40;83.00;;;;;;5043416;28;20027;-88
2022/04/14 06:27:52;;;;;;;;;;;10.60;82.80;;;;;;5046387;28;19921;-88
2022/04/14 06:30:18;;;;;;;;;;;10.70;82.60;;;;;;5043808;28;19923;-88
2022/04/14 06:32:57;;;;;;;;;;;10.80;81.60;;;;;;5043574;28;19919;-87
2022/04/14 06:35:23;;;;;;;;;;;11.00;82.00;;;;;;5047787;28;19963;-87
2022/04/14 06:37:49;;;;;;;;;;;11.10;80.80;;;;;;5037510;28;19951;-88
2022/04/14 06:40:14;;;;;;;;;;;11.30;81.10;;;;;;5053707;28;19913;-88
2022/04/14 06:42:40;;;;;;;;;;;11.40;80.10;;;;;;5050997;28;20281;-88
2022/04/14 06:45:06;;;;;;;;;;;11.60;80.10;;;;;;5044646;28;19917;-89
2022/04/14 06:47:32;;;;;;;;;;;11.70;79.30;;;;;;5049254;28;20287;-88
2022/04/14 06:49:57;;;;;;;;;;;11.80;78.50;;;;;;5042914;28;19956;-88
2022/04/14 06:52:23;;;;;;;;;;;12.00;78.10;;;;;;5047231;28;19948;-88
2022/04/14 06:54:49;;;;;;;;;;;12.20;77.00;;;;;;5045011;28;19958;-88
2022/04/14 06:57:15;;;;;;;;;;;12.40;76.10;;;;;;5043628;28;19913;-88
2022/04/14 06:59:40;;;;;;;;;;;12.50;75.00;;;;;;5045606;28;19913;-88
2022/04/14 07:02:06;;;;;;;;;;;12.70;76.20;;;;;;5048428;28;20291;-88
2022/04/14 07:04:33;;;;;;;;;;;12.90;75.80;;;;;;5042831;28;19928;-88
2022/04/14 07:06:59;;;;;;;;;;;13.00;76.60;;;;;;5062883;28;19921;-89
2022/04/14 07:09:24;;;;;;;;;;;13.20;74.30;;;;;;5050037;28;19912;-88
2022/04/14 07:11:50;;;;;;;;;;;13.30;70.90;;;;;;5047745;28;19919;-88
2022/04/14 07:14:16;;;;;;;;;;;13.50;72.60;;;;;;5046697;28;19919;-89
2022/04/14 07:16:42;;;;;;;;;;;13.80;70.60;;;;;;5047372;28;19913;-88
2022/04/14 07:19:07;;;;;;;;;;;13.90;71.80;;;;;;5042714;28;19921;-88
2022/04/14 07:21:33;;;;;;;;;;;14.00;70.30;;;;;;5038402;28;19913;-88
2022/04/14 07:23:58;;;;;;;;;;;14.20;69.20;;;;;;5049860;28;20296;-88
2022/04/14 07:26:24;;;;;;;;;;;14.40;69.40;;;;;;5062722;28;20283;-88
2022/04/14 07:28:49;;;;;;;;;;;14.60;66.10;;;;;;5038811;28;19917;-88
2022/04/14 07:31:15;;;;;;;;;;;14.70;65.60;;;;;;5048923;28;21387;-88
2022/04/14 07:33:41;;;;;;;;;;;14.90;63.90;;;;;;5045222;28;20007;-88
2022/04/14 07:36:07;;;;;;;;;;;15.00;65.50;;;;;;5041172;28;20325;-88
2022/04/14 07:38:32;;;;;;;;;;;15.20;63.40;;;;;;5043265;28;19924;-88
2022/04/14 07:40:58;;;;;;;;;;;15.30;61.50;;;;;;5053623;28;19967;-88
2022/04/14 07:43:23;;;;;;;;;;;15.50;60.60;;;;;;5042697;28;19995;-87
2022/04/14 07:45:49;;;;;;;;;;;15.60;60.50;;;;;;5037986;28;19917;-87
2022/04/14 07:48:16;;;;;;;;;;;15.60;60.20;;;;;;5052665;28;19913;-87
2022/04/14 07:50:42;;;;;;;;;;;15.60;58.40;;;;;;5049919;28;19912;-87
2022/04/14 07:53:08;;;;;;;;;;;15.80;59.10;;;;;;5044040;28;19917;-87
2022/04/14 07:55:34;;;;;;;;;;;15.90;57.20;;;;;;5052175;28;20282;-87
2022/04/14 07:58:10;;;;;;;;;;;16.00;56.20;;;;;;5045052;28;19912;-87
2022/04/14 08:00:37;;;;;;;;;;;16.10;56.10;;;;;;5051416;28;19917;-88
2022/04/14 08:03:03;;;;;;;;;;;16.30;56.10;;;;;;5051099;28;19921;-88
2022/04/14 08:05:31;;;;;;;;;;;16.40;55.90;;;;;;5049791;28;19917;-88
2022/04/14 08:07:57;;;;;;;;;;;16.60;55.30;;;;;;5060760;28;20367;-89
2022/04/14 08:10:23;;;;;;;;;;;16.80;56.00;;;;;;5053312;28;19967;-89
2022/04/14 08:12:48;;;;;;;;;;;16.80;55.00;;;;;;5046972;28;19909;-88
2022/04/14 08:15:14;;;;;;;;;;;16.90;54.90;;;;;;5042212;28;19912;-88
2022/04/14 08:17:41;;;;;;;;;;;17.00;57.20;;;;;;5047557;28;20275;-88
2022/04/14 08:20:07;;;;;;;;;;;17.10;55.80;;;;;;5054115;28;19920;-88
2022/04/14 08:22:47;;;;;;;;;;;17.20;55.30;;;;;;5053756;28;19909;-88
2022/04/14 08:25:17;;;;;;;;;;;17.20;54.40;;;;;;5046120;28;20041;-89
2022/04/14 08:27:42;;;;;;;;;;;17.20;55.20;;;;;;5052143;28;19912;-88
2022/04/14 08:30:08;;;;;;;;;;;17.30;54.90;;;;;;5053221;28;19923;-88
2022/04/14 08:32:35;;;;;;;;;;;17.40;54.60;;;;;;5065067;28;19909;-89
2022/04/14 08:35:01;;;;;;;;;;;17.40;53.20;;;;;;5055506;28;19912;-88
2022/04/14 08:37:27;;;;;;;;;;;17.50;53.90;;;;;;5042121;28;19936;-88
2022/04/14 08:39:52;;;;;;;;;;;17.60;53.70;;;;;;5058993;28;20271;-89
2022/04/14 08:42:21;;;;;;;;;;;17.80;52.90;;;;;;5054696;28;20274;-88
2022/04/14 08:44:49;;;;;;;;;;;17.80;51.90;;;;;;5060210;28;19917;-88
2022/04/14 08:47:20;;;;;;;;;;;17.80;53.50;;;;;;5065965;28;20420;-88
2022/04/14 08:49:46;;;;;;;;;;;17.90;52.20;;;;;;5057434;28;19913;-88
2022/04/14 08:52:14;;;;;;;;;;;18.00;53.20;;;;;;5048091;28;19920;-90
2022/04/14 08:54:40;;;;;;;;;;;18.10;51.90;;;;;;5064436;28;19920;-89
2022/04/14 08:57:06;;;;;;;;;;;18.20;52.40;;;;;;5061700;28;19927;-89
2022/04/14 08:59:33;;;;;;;;;;;18.30;52.50;;;;;;5058138;28;19995;-88
2022/04/14 09:02:03;;;;;;;;;;;18.40;53.10;;;;;;5065368;28;20423;-89
2022/04/14 09:04:29;;;;;;;;;;;18.60;51.90;;;;;;5070164;28;19912;-89
2022/04/14 09:06:55;;;;;;;;;;;18.70;55.10;;;;;;5057001;28;19916;-88
2022/04/14 09:09:23;;;;;;;;;;;18.80;52.20;;;;;;5041654;28;20278;-88
2022/04/14 09:11:49;;;;;;;;;;;18.80;50.90;;;;;;5046277;28;19959;-88
2022/04/14 09:15:04;;;;;;;;;;;18.70;49.20;;;;;;5107150;27;19917;-88
2022/04/14 09:17:30;;;;;;;;;;;18.60;49.60;;;;;;5094580;28;20003;-89
2022/04/14 09:19:55;;;;;;;;;;;18.70;51.60;;;;;;5086486;28;20445;-88
2022/04/14 09:22:21;;;;;;;;;;;18.70;50.10;;;;;;5109498;28;19912;-89
2022/04/14 09:24:50;;;;;;;;;;;18.80;49.60;;;;;;5095837;28;19919;-89
2022/04/14 09:27:22;;;;;;;;;;;18.90;49.60;;;;;;5087769;28;19912;-88
2022/04/14 09:29:48;;;;;;;;;;;19.10;47.90;;;;;;5087999;28;20358;-88
2022/04/14 09:32:32;;;;;;;;;;;19.20;48.10;;;;;;5095410;28;19918;-89
2022/04/14 09:34:58;;;;;;;;;;;19.30;49.20;;;;;;5089362;28;19916;-88
2022/04/14 09:37:24;;;;;;;;;;;19.50;47.70;;;;;;5092057;28;20175;-88
2022/04/14 09:39:51;;;;;;;;;;;19.60;46.50;;;;;;5090526;28;19954;-88
2022/04/14 09:42:16;;;;;;;;;;;19.70;45.50;;;;;;5088346;28;19955;-88
2022/04/14 09:44:42;;;;;;;;;;;19.80;45.80;;;;;;5091644;28;20361;-89
2022/04/14 09:47:07;;;;;;;;;;;19.90;47.20;;;;;;5093429;28;19919;-88
2022/04/14 09:49:39;;;;;;;;;;;20.00;47.50;;;;;;5095236;28;19912;-89
2022/04/14 09:52:06;;;;;;;;;;;20.10;48.30;;;;;;5090514;28;19950;-88
2022/04/14 09:54:32;;;;;;;;;;;20.10;49.80;;;;;;5097691;28;19916;-87
2022/04/14 09:56:57;;;;;;;;;;;20.10;48.50;;;;;;5103420;28;19912;-87
2022/04/14 09:59:29;;;;;;;;;;;20.10;48.50;;;;;;5096647;28;19991;-88
2022/04/14 10:02:09;;;;;;;;;;;20.10;49.60;;;;;;5091027;28;20038;-89
2022/04/14 10:04:42;;;;;;;;;;;20.20;45.10;;;;;;5090228;28;20005;-88
2022/04/14 10:07:12;;;;;;;;;;;20.30;47.90;;;;;;5089623;28;19913;-88
2022/04/14 10:09:42;;;;;;;;;;;20.40;45.70;;;;;;5092123;28;20173;-88
2022/04/14 10:12:20;;;;;;;;;;;20.50;48.60;;;;;;5089942;28;19943;-88
2022/04/14 10:15:04;;;;;;;;;;;20.60;46.00;;;;;;5098456;28;19967;-88
2022/04/14 10:17:38;;;;;;;;;;;20.70;44.50;;;;;;5091836;28;19935;-88
2022/04/14 10:20:05;;;;;;;;;;;20.80;47.10;;;;;;5089718;28;19916;-88
2022/04/14 10:22:31;;;;;;;;;;;21.00;45.10;;;;;;5088201;28;19912;-88
2022/04/14 10:24:57;;;;;;;;;;;21.00;44.30;;;;;;5082771;28;19915;-88
2022/04/14 10:27:22;;;;;;;;;;;21.20;42.60;;;;;;5075861;28;20440;-88
2022/04/14 10:29:49;;;;;;;;;;;21.30;46.60;;;;;;5076026;28;19915;-89
2022/04/14 10:32:14;;;;;;;;;;;21.40;43.70;;;;;;5075677;28;19999;-88
2022/04/14 10:34:40;;;;;;;;;;;21.50;41.30;;;;;;5075579;28;20011;-88
2022/04/14 10:37:09;;;;;;;;;;;21.50;43.40;;;;;;5075639;28;19908;-89
2022/04/14 10:39:42;;;;;;;;;;;21.60;42.00;;;;;;5075657;28;19912;-89
2022/04/14 10:42:08;;;;;;;;;;;21.60;39.30;;;;;;5075591;28;19999;-88
2022/04/14 10:45:03;;;;;;;;;;;21.60;37.50;;;;;;5075538;28;19928;-89
2022/04/14 10:47:33;;;;;;;;;;;21.80;38.70;;;;;;5074549;28;19913;-88
2022/04/14 10:49:59;;;;;;;;;;;21.90;36.30;;;;;;5075089;28;19912;-88
2022/04/14 10:52:25;;;;;;;;;;;22.00;36.40;;;;;;5075424;28;19912;-89
2022/04/14 10:54:55;;;;;;;;;;;22.10;36.40;;;;;;5075347;28;19924;-88
2022/04/14 10:57:41;;;;;;;;;;;22.30;39.70;;;;;;5075319;28;19909;-88
2022/04/14 11:00:19;;;;;;;;;;;22.30;39.60;;;;;;5075516;28;19958;-89
2022/04/14 11:03:03;;;;;;;;;;;22.30;38.80;;;;;;5075218;28;19912;-88
2022/04/14 11:05:38;;;;;;;;;;;22.50;39.10;;;;;;5075106;28;19954;-89
2022/04/14 11:08:22;;;;;;;;;;;22.70;39.70;;;;;;5074934;28;19958;-88
2022/04/14 11:11:06;;;;;;;;;;;22.80;38.90;;;;;;5074764;28;19912;-89
2022/04/14 11:14:07;;;;;;;;;;;22.90;36.80;;;;;;5074797;28;19920;-88
2022/04/14 11:16:39;;;;;;;;;;;22.90;36.00;;;;;;5052574;28;19916;-88
2022/04/14 11:19:26;;;;;;;;;;;22.90;39.60;;;;;;5071132;28;20049;-88
2022/04/14 11:22:05;;;;;;;;;;;22.80;38.20;;;;;;5074875;28;19920;-88
2022/04/14 11:24:37;;;;;;;;;;;22.80;37.90;;;;;;5074726;28;20386;-88
2022/04/14 11:27:13;;;;;;;;;;;22.90;38.20;;;;;;5074996;28;19913;-89
2022/04/14 11:29:39;;;;;;;;;;;23.10;41.00;;;;;;5073717;28;20350;-89
2022/04/14 11:32:05;;;;;;;;;;;23.20;36.30;;;;;;5073260;28;19967;-89
2022/04/14 11:34:34;;;;;;;;;;;23.40;38.10;;;;;;5077140;28;19978;-89
2022/04/14 11:37:01;;;;;;;;;;;23.70;35.40;;;;;;5078589;28;20184;-89
2022/04/14 11:39:27;;;;;;;;;;;23.80;39.40;;;;;;5073624;28;20362;-89
2022/04/14 11:41:53;;;;;;;;;;;23.80;38.50;;;;;;5072407;28;19913;-89
2022/04/14 11:44:25;;;;;;;;;;;24.10;39.70;;;;;;5072327;28;19913;-89
2022/04/14 11:46:54;;;;;;;;;;;24.40;37.30;;;;;;5079709;28;19912;-89
2022/04/14 11:49:21;;;;;;;;;;;24.80;37.10;;;;;;5073800;28;19919;-89
2022/04/14 11:51:48;;;;;;;;;;;25.20;37.20;;;;;;5068123;28;19912;-89
2022/04/14 11:54:37;;;;;;;;;;;25.50;33.90;;;;;;5070825;28;19917;-89
2022/04/14 11:57:09;;;;;;;;;;;25.90;33.60;;;;;;5070579;28;19913;-89
2022/04/14 11:59:46;;;;;;;;;;;26.20;34.40;;;;;;5072879;28;19916;-89
2022/04/14 12:02:18;;;;;;;;;;;25.70;35.70;;;;;;5076483;28;19912;-89
2022/04/14 12:04:51;;;;;;;;;;;25.40;37.20;;;;;;5084893;28;19919;-89
2022/04/14 12:07:17;;;;;;;;;;;25.50;36.50;;;;;;5071116;28;19912;-89
2022/04/14 12:09:43;;;;;;;;;;;25.50;33.50;;;;;;5069134;28;19913;-89
2022/04/14 12:12:09;;;;;;;;;;;25.30;33.20;;;;;;5072072;28;19912;-90
2022/04/14 12:14:35;;;;;;;;;;;25.90;32.90;;;;;;5070968;28;19939;-89
2022/04/14 12:17:00;;;;;;;;;;;26.50;35.10;;;;;;5067058;28;19912;-89
2022/04/14 12:19:39;;;;;;;;;;;26.90;33.60;;;;;;5071934;28;19912;-89
2022/04/14 12:22:05;;;;;;;;;;;27.20;34.00;;;;;;5071460;28;20248;-89
2022/04/14 12:24:30;;;;;;;;;;;27.70;33.30;;;;;;5072304;28;19912;-89
2022/04/14 12:26:57;;;;;;;;;;;28.10;32.60;;;;;;5080125;28;20360;-89
2022/04/14 12:29:22;;;;;;;;;;;28.30;32.00;;;;;;5072282;28;19923;-89
2022/04/14 12:31:48;;;;;;;;;;;28.70;29.90;;;;;;5069442;28;20011;-89
2022/04/14 12:34:14;;;;;;;;;;;28.70;30.60;;;;;;5070591;28;19920;-90
2022/04/14 12:36:40;;;;;;;;;;;28.90;28.50;;;;;;5069851;28;20045;-90
2022/04/14 12:39:06;;;;;;;;;;;29.30;28.20;;;;;;5068218;28;20280;-88
2022/04/14 12:41:33;;;;;;;;;;;29.20;26.60;;;;;;5081207;28;20007;-90
2022/04/14 12:43:58;;;;;;;;;;;29.40;28.00;;;;;;5071899;28;19966;-90
2022/04/14 12:46:25;;;;;;;;;;;29.80;27.20;;;;;;5073864;28;19913;-89
2022/04/14 12:49:09;;;;;;;;;;;29.70;26.10;;;;;;5071219;28;19919;-89
2022/04/14 12:51:36;;;;;;;;;;;29.60;26.90;;;;;;5070087;28;19939;-89
2022/04/14 12:54:02;;;;;;;;;;;29.70;29.00;;;;;;5072397;28;19917;-89
2022/04/14 12:56:29;;;;;;;;;;;29.60;29.60;;;;;;5076108;28;20020;-89
2022/04/14 12:59:10;;;;;;;;;;;29.20;29.50;;;;;;5079887;28;19922;-90
2022/04/14 13:01:45;;;;;;;;;;;29.90;28.40;;;;;;5072017;28;19913;-89
2022/04/14 13:04:10;;;;;;;;;;;31.60;26.40;;;;;;5068697;28;19919;-90
2022/04/14 13:06:36;;;;;;;;;;;33.40;22.20;;;;;;5071588;28;19917;-90
2022/04/14 13:09:14;;;;;;;;;;;34.40;21.40;;;;;;5071098;28;20010;-90
2022/04/14 13:11:46;;;;;;;;;;;35.10;20.20;;;;;;5074445;28;19990;-90
2022/04/14 13:14:30;;;;;;;;;;;34.10;23.20;;;;;;5070321;28;19927;-89
2022/04/14 13:16:57;;;;;;;;;;;32.70;24.60;;;;;;5072506;28;19919;-90
2022/04/14 13:19:23;;;;;;;;;;;32.90;25.70;;;;;;5072298;28;19931;-91
2022/04/14 13:21:49;;;;;;;;;;;33.40;24.50;;;;;;5074341;28;20274;-90
2022/04/14 13:24:15;;;;;;;;;;;34.60;23.00;;;;;;5063177;28;19982;-91
2022/04/14 13:26:41;;;;;;;;;;;35.30;21.30;;;;;;5067421;28;20512;-90
2022/04/14 13:29:08;;;;;;;;;;;35.60;20.50;;;;;;5068018;28;19913;-90
2022/04/14 13:31:34;;;;;;;;;;;36.20;22.20;;;;;;5076361;28;19912;-90
2022/04/14 13:34:00;;;;;;;;;;;37.10;20.30;;;;;;5077325;28;19916;-90
2022/04/14 13:36:25;;;;;;;;;;;37.40;18.90;;;;;;5075687;28;19978;-89
2022/04/14 13:38:51;;;;;;;;;;;36.50;19.80;;;;;;5071443;28;19912;-89
2022/04/14 13:41:16;;;;;;;;;;;35.80;20.90;;;;;;5069512;28;20727;-89
2022/04/14 13:43:42;;;;;;;;;;;34.30;21.00;;;;;;5071419;28;20341;-89
2022/04/14 13:46:07;;;;;;;;;;;33.90;22.40;;;;;;5072932;28;20365;-90
2022/04/14 13:48:33;;;;;;;;;;;34.90;20.00;;;;;;5068117;28;19913;-90
2022/04/14 13:50:59;;;;;;;;;;;35.30;22.40;;;;;;5071283;28;20351;-89
2022/04/14 13:53:26;;;;;;;;;;;35.70;21.20;;;;;;5073768;28;19920;-90
2022/04/14 13:55:51;;;;;;;;;;;36.00;21.20;;;;;;5073439;28;19914;-90
2022/04/14 13:58:17;;;;;;;;;;;35.90;20.80;;;;;;5068033;28;19931;-89
2022/04/14 14:00:42;;;;;;;;;;;35.70;19.20;;;;;;5074553;28;19935;-90
2022/04/14 14:03:11;;;;;;;;;;;34.70;20.00;;;;;;5068151;28;19927;-89
2022/04/14 14:05:36;;;;;;;;;;;34.00;21.30;;;;;;5071127;28;20465;-90
2022/04/14 14:08:02;;;;;;;;;;;34.20;21.40;;;;;;5072566;28;20003;-90
2022/04/14 14:10:28;;;;;;;;;;;34.50;20.70;;;;;;5075928;28;19916;-90
2022/04/14 14:12:54;;;;;;;;;;;34.90;20.90;;;;;;5078115;28;20390;-90
2022/04/14 14:15:19;;;;;;;;;;;34.60;21.40;;;;;;5071703;28;20366;-90
2022/04/14 14:17:45;;;;;;;;;;;34.70;20.20;;;;;;5074319;28;20271;-90
2022/04/14 14:20:11;;;;;;;;;;;34.20;21.00;;;;;;5079989;28;20352;-89
2022/04/14 14:22:37;;;;;;;;;;;34.60;20.90;;;;;;5073262;28;20362;-90
2022/04/14 14:25:03;;;;;;;;;;;35.20;20.30;;;;;;5073576;28;19916;-90